Main page
METAR-TAF:

METAR-TAF

Airports :

Nörvenich Air Base

Nörvenich, Germany

latitude: 50-50N, longitude: 006-40E, elevation: 118 m

Current weather observation

The report was made 34 minutes ago, at 16:20 UTC
Wind 8 kt from the East/Southeast
Temperature 13°C
Humidity 88%
Pressure 1011 hPa
Visibility 10 km or more
Few clouds at a height of 14000 ft
Broken clouds at a height of 38000 ft

METAR: ETNN 231620Z 11008KT 9999 FEW140 BKN380 13/11 Q1011 BLU+

Time: 18:54 (16:54 UTC)

Forecast

The report was made 1 hour and 9 minutes ago, at 15:45 UTC
Forecast valid from 23 at 15 UTC to 23 at 23 UTC
Wind 10 kt from the East/Southeast
Visibility 10 km or more
Scattered clouds at a height of 2000 ft
Broken clouds at a height of 15000 ft

TAF: ETNN 231545Z 2315/2323 11010KT 9999 NSW SCT020 BKN150 CANCEL BY ETGL

Weather observations and forecasts of more than 4000 airports (METAR and TAF reports).

The available stations are represented by yellow and red dots on the map.

Hover mouse over dot to see the name of the station.

Then click to see weather observations and forecasts.

To change the map : click on the green buttons with a black cross to zoom in, on the green button with a dash to zoom out, or on the green arrows for adjacent maps.


METAR-TAF: